Time;durP1;ratioP1;P1;durP2;ratioP2;P2;SDS_P1;SDS_P2;PMS_P1;PMS_P2;Temp;Humidity;BMP_temperature;BMP_pressure;BME280_temperature;BME280_humidity;BME280_pressure;Samples;Min_cycle;Max_cycle;Signal;HPM_P1;HPM_P2
2022/11/12 00:00:51;;;;;;;5.97;4.30;;;9.20;99.90;;;;;;5035011;28;20783;-61
2022/11/12 00:03:20;;;;;;;6.00;4.20;;;9.10;99.90;;;;;;5035139;28;20402;-61
2022/11/12 00:05:48;;;;;;;5.30;3.67;;;9.10;99.90;;;;;;5034401;28;20468;-59
2022/11/12 00:08:15;;;;;;;6.37;4.60;;;9.10;99.90;;;;;;5035141;28;20465;-57
2022/11/12 00:10:42;;;;;;;11.07;6.87;;;9.00;99.90;;;;;;5030952;28;20451;-59
2022/11/12 00:13:09;;;;;;;8.47;5.10;;;9.00;99.90;;;;;;5026315;28;20477;-59
2022/11/12 00:15:38;;;;;;;6.20;5.10;;;9.00;99.90;;;;;;5023877;28;20472;-56
2022/11/12 00:18:06;;;;;;;13.83;5.20;;;9.00;99.90;;;;;;5034225;28;20468;-61
2022/11/12 00:20:33;;;;;;;6.40;4.87;;;8.90;99.90;;;;;;5034773;28;20475;-56
2022/11/12 00:23:00;;;;;;;9.60;3.80;;;9.00;99.90;;;;;;5034182;28;20436;-59
2022/11/12 00:25:27;;;;;;;5.60;3.73;;;9.00;99.90;;;;;;5034014;28;20481;-59
2022/11/12 00:27:54;;;;;;;5.00;3.53;;;9.00;99.90;;;;;;5034506;28;20432;-63
2022/11/12 00:30:21;;;;;;;7.87;4.47;;;9.00;99.90;;;;;;5034757;28;20429;-56
2022/11/12 00:32:49;;;;;;;11.00;4.17;;;9.10;99.90;;;;;;5033518;28;20472;-59
2022/11/12 00:35:16;;;;;;;6.73;3.70;;;9.00;99.90;;;;;;5034067;28;20464;-56
2022/11/12 00:37:43;;;;;;;5.47;3.73;;;9.00;99.90;;;;;;5033723;28;20465;-59
2022/11/12 00:40:11;;;;;;;5.37;4.03;;;9.00;99.90;;;;;;5034664;28;20476;-56
2022/11/12 00:42:37;;;;;;;6.53;3.90;;;8.90;99.90;;;;;;5034387;28;20461;-52
2022/11/12 00:45:05;;;;;;;12.03;3.67;;;8.90;99.90;;;;;;5035153;28;20460;-48
2022/11/12 00:47:32;;;;;;;8.10;3.70;;;8.90;99.90;;;;;;5052642;28;20483;-52
2022/11/12 00:50:00;;;;;;;5.73;3.63;;;9.00;99.90;;;;;;5046628;28;20487;-63
2022/11/12 00:52:27;;;;;;;8.57;3.97;;;9.00;99.90;;;;;;5049695;28;20443;-58
2022/11/12 00:54:54;;;;;;;8.70;3.70;;;9.00;99.90;;;;;;5053526;28;20428;-61
2022/11/12 00:57:21;;;;;;;7.43;3.60;;;8.90;99.90;;;;;;5053886;28;20443;-60
2022/11/12 00:59:48;;;;;;;5.43;3.80;;;9.00;99.90;;;;;;5053545;28;20448;-57
2022/11/12 01:02:15;;;;;;;4.40;3.17;;;8.90;99.90;;;;;;5053551;28;20471;-55
2022/11/12 01:04:42;;;;;;;5.20;3.90;;;8.90;99.90;;;;;;5053852;28;20444;-59
2022/11/12 01:07:10;;;;;;;5.77;3.53;;;8.90;99.90;;;;;;5057088;28;20480;-61
2022/11/12 01:09:37;;;;;;;3.83;3.47;;;8.90;99.90;;;;;;5056980;28;20444;-63
2022/11/12 01:12:04;;;;;;;7.57;4.10;;;8.90;99.90;;;;;;5057954;28;20448;-64
2022/11/12 01:14:31;;;;;;;4.37;3.20;;;8.90;99.90;;;;;;5057645;28;20479;-57
2022/11/12 01:16:58;;;;;;;5.80;3.63;;;8.80;99.90;;;;;;5057747;28;20444;-56
2022/11/12 01:19:25;;;;;;;7.47;3.93;;;8.80;99.90;;;;;;5057950;28;20444;-57
2022/11/12 01:21:52;;;;;;;5.93;3.30;;;8.80;99.90;;;;;;5058167;28;20447;-59
2022/11/12 01:24:20;;;;;;;4.60;3.10;;;8.80;99.90;;;;;;5058657;28;20456;-59
2022/11/12 01:26:48;;;;;;;4.93;3.40;;;8.90;99.90;;;;;;5058540;28;20511;-56
2022/11/12 01:29:14;;;;;;;7.40;3.53;;;8.90;99.90;;;;;;5046620;28;20439;-58
2022/11/12 01:31:41;;;;;;;4.07;3.07;;;8.90;99.90;;;;;;5058083;28;20462;-59
2022/11/12 01:34:09;;;;;;;5.37;2.80;;;8.90;99.90;;;;;;5057903;28;20440;-60
2022/11/12 01:36:39;;;;;;;4.13;3.60;;;8.90;99.90;;;;;;5057447;28;20440;-58
2022/11/12 01:39:07;;;;;;;6.27;3.47;;;8.90;99.90;;;;;;5045857;28;20518;-57
2022/11/12 01:41:40;;;;;;;3.87;2.50;;;8.90;99.90;;;;;;5058209;28;20451;-63
2022/11/12 01:44:15;;;;;;;9.10;4.30;;;8.90;99.90;;;;;;5057598;28;20447;-52
2022/11/12 01:46:50;;;;;;;6.83;3.30;;;8.90;99.90;;;;;;5056759;28;20479;-57
2022/11/12 01:49:24;;;;;;;5.70;3.63;;;8.90;99.90;;;;;;5050094;28;20451;-65
2022/11/12 01:51:53;;;;;;;13.30;4.10;;;8.90;99.90;;;;;;5051434;28;20467;-63
2022/11/12 01:54:21;;;;;;;5.63;4.30;;;8.90;99.90;;;;;;5048359;28;20444;-56
2022/11/12 01:56:51;;;;;;;5.63;3.23;;;8.80;99.90;;;;;;5056414;28;20455;-52
2022/11/12 01:59:23;;;;;;;4.97;3.20;;;8.80;99.90;;;;;;5057260;28;20468;-52
2022/11/12 02:01:50;;;;;;;7.07;3.23;;;8.90;99.90;;;;;;5056897;28;20448;-60
2022/11/12 02:04:17;;;;;;;4.90;3.60;;;8.90;99.90;;;;;;5045677;28;20571;-57
2022/11/12 02:06:46;;;;;;;5.27;2.80;;;8.80;99.90;;;;;;5057008;28;20484;-55
2022/11/12 02:09:14;;;;;;;3.17;2.30;;;8.90;99.90;;;;;;5057430;28;20555;-53
2022/11/12 02:11:41;;;;;;;5.53;3.27;;;8.80;99.90;;;;;;5056887;28;20460;-62
2022/11/12 02:14:08;;;;;;;6.43;2.93;;;8.80;99.90;;;;;;5056791;28;20428;-57
2022/11/12 02:16:40;;;;;;;5.37;3.10;;;8.80;99.90;;;;;;5055685;28;20468;-63
2022/11/12 02:19:08;;;;;;;3.90;2.93;;;8.80;99.90;;;;;;5057386;28;20458;-60
2022/11/12 02:21:37;;;;;;;5.10;3.23;;;8.80;99.90;;;;;;5056676;28;20483;-59
2022/11/12 02:24:06;;;;;;;6.07;3.40;;;8.80;99.90;;;;;;5056837;28;20440;-57
2022/11/12 02:26:37;;;;;;;5.60;3.23;;;8.80;99.90;;;;;;5056855;28;20478;-52
2022/11/12 02:29:07;;;;;;;4.97;3.00;;;8.80;99.90;;;;;;5056563;28;20467;-62
2022/11/12 02:31:34;;;;;;;4.80;3.13;;;8.70;99.90;;;;;;5056345;28;20456;-58
2022/11/12 02:34:01;;;;;;;9.03;2.43;;;8.70;99.90;;;;;;5057001;28;20472;-60
2022/11/12 02:36:28;;;;;;;3.50;2.20;;;8.70;99.90;;;;;;5056968;28;20896;-62
2022/11/12 02:38:57;;;;;;;7.00;2.60;;;8.70;99.90;;;;;;5044835;28;20444;-53
2022/11/12 02:41:24;;;;;;;7.13;3.20;;;8.70;99.90;;;;;;5057128;28;20432;-55
2022/11/12 02:43:51;;;;;;;3.93;2.53;;;8.70;99.90;;;;;;5056092;28;20448;-58
2022/11/12 02:46:18;;;;;;;5.47;3.13;;;8.70;99.90;;;;;;5056326;28;20451;-59
2022/11/12 02:48:48;;;;;;;4.30;2.63;;;8.70;99.90;;;;;;5056173;28;20439;-55
2022/11/12 02:51:22;;;;;;;4.47;2.80;;;8.70;99.90;;;;;;5055423;28;20447;-61
2022/11/12 02:53:51;;;;;;;5.03;2.33;;;8.60;99.90;;;;;;5055903;28;20444;-59
2022/11/12 02:56:22;;;;;;;4.63;2.50;;;8.70;99.90;;;;;;5056186;28;20467;-62
2022/11/12 02:58:49;;;;;;;4.30;2.43;;;8.70;99.90;;;;;;5055898;28;20464;-60
2022/11/12 03:01:16;;;;;;;4.77;2.67;;;8.70;99.90;;;;;;5056459;28;20487;-57
2022/11/12 03:03:46;;;;;;;3.67;2.40;;;8.70;99.90;;;;;;5056187;28;20447;-53
2022/11/12 03:06:26;;;;;;;4.07;2.53;;;8.70;99.90;;;;;;5089203;23;20651;-53
2022/11/12 03:08:53;;;;;;;3.10;2.50;;;8.70;99.90;;;;;;5036637;28;20513;-58
2022/11/12 03:11:21;;;;;;;10.00;2.53;;;8.70;99.90;;;;;;5037187;28;20464;-57
2022/11/12 03:13:48;;;;;;;10.50;3.33;;;8.80;99.90;;;;;;5037480;28;20445;-56
2022/11/12 03:16:15;;;;;;;10.47;2.93;;;8.80;99.90;;;;;;5038250;28;20432;-58
2022/11/12 03:18:42;;;;;;;4.50;2.50;;;8.80;99.90;;;;;;5037780;28;20429;-59
2022/11/12 03:21:09;;;;;;;10.53;6.10;;;8.80;99.90;;;;;;5036821;28;20445;-59
2022/11/12 03:23:35;;;;;;;3.70;2.13;;;8.80;99.90;;;;;;5036950;28;20484;-60
2022/11/12 03:26:03;;;;;;;4.07;2.60;;;8.80;99.90;;;;;;5037250;28;20452;-59
2022/11/12 03:28:32;;;;;;;4.40;3.43;;;8.80;99.90;;;;;;5036346;28;20509;-60
2022/11/12 03:31:00;;;;;;;9.17;3.00;;;8.80;99.90;;;;;;5035984;28;20414;-55
2022/11/12 03:33:27;;;;;;;10.50;2.23;;;8.80;99.90;;;;;;5036108;28;20464;-57
2022/11/12 03:35:54;;;;;;;5.97;2.40;;;8.80;99.90;;;;;;5035820;28;20497;-56
2022/11/12 03:38:26;;;;;;;4.43;2.70;;;8.80;99.90;;;;;;5036472;28;20454;-60
2022/11/12 03:40:53;;;;;;;5.90;2.50;;;8.80;99.90;;;;;;5037280;28;20496;-59
2022/11/12 03:43:20;;;;;;;3.77;2.10;;;8.80;99.90;;;;;;5037162;28;20445;-57
2022/11/12 03:45:51;;;;;;;4.20;2.60;;;8.80;99.90;;;;;;5024935;28;20527;-55
2022/11/12 03:48:18;;;;;;;12.53;2.83;;;8.80;99.90;;;;;;5035893;28;20507;-54
2022/11/12 03:50:48;;;;;;;3.30;2.70;;;8.80;99.90;;;;;;5022577;28;20453;-56
2022/11/12 03:53:15;;;;;;;10.40;2.60;;;8.80;99.90;;;;;;5035419;28;20477;-52
2022/11/12 03:55:42;;;;;;;4.20;2.60;;;8.80;99.90;;;;;;5035210;28;20448;-53
2022/11/12 03:58:09;;;;;;;3.67;2.60;;;8.80;99.90;;;;;;5035368;28;20437;-50
2022/11/12 04:00:36;;;;;;;6.40;2.33;;;8.80;99.90;;;;;;5035233;28;20456;-56
2022/11/12 04:03:05;;;;;;;3.00;2.33;;;8.70;99.90;;;;;;5022909;28;20445;-53
2022/11/12 04:08:36;;;;;;;5.37;3.20;;;8.70;99.90;;;;;;5034422;28;20464;-56
2022/11/12 04:11:04;;;;;;;14.20;7.80;;;8.60;99.90;;;;;;5034574;28;20433;-53
2022/11/12 04:13:31;;;;;;;11.60;5.70;;;8.60;99.90;;;;;;5022605;28;20432;-56
2022/11/12 04:21:53;;;;;;;6.83;2.90;;;8.50;99.90;;;;;;5034684;28;20409;-52
2022/11/12 04:27:18;;;;;;;6.27;3.03;;;8.50;99.90;;;;;;5034831;28;20479;-53
2022/11/12 04:32:34;;;;;;;4.20;2.47;;;8.40;99.90;;;;;;5032522;28;20412;-57
2022/11/12 04:35:04;;;;;;;5.67;3.00;;;8.40;99.90;;;;;;5025401;28;20433;-55
2022/11/12 04:37:43;;;;;;;4.30;2.70;;;8.30;99.90;;;;;;5034519;28;20445;-55
2022/11/12 04:45:40;;;;;;;2.93;2.13;;;8.20;99.90;;;;;;5034165;28;20432;-51
2022/11/12 04:48:06;;;;;;;2.90;2.23;;;8.20;99.90;;;;;;5035302;28;20488;-53
2022/11/12 04:50:40;;;;;;;4.57;3.37;;;8.20;99.90;;;;;;5023384;28;20992;-53
2022/11/12 04:53:07;;;;;;;4.30;2.60;;;8.20;99.90;;;;;;5034358;28;20434;-55
2022/11/12 04:55:36;;;;;;;4.13;2.70;;;8.10;99.90;;;;;;5022592;28;20452;-53
2022/11/12 04:58:03;;;;;;;3.37;2.23;;;8.10;99.90;;;;;;5035821;28;20417;-52
2022/11/12 05:00:30;;;;;;;7.90;3.43;;;8.10;99.90;;;;;;5036201;28;20465;-57
2022/11/12 05:02:57;;;;;;;4.27;2.53;;;8.00;99.90;;;;;;5036126;28;20453;-44
2022/11/12 05:05:24;;;;;;;6.97;3.07;;;8.00;99.90;;;;;;5035850;28;20456;-49
2022/11/12 05:07:52;;;;;;;3.43;2.40;;;8.00;99.90;;;;;;5035559;28;20492;-53
2022/11/12 05:10:19;;;;;;;4.57;2.53;;;8.00;99.90;;;;;;5035445;28;20433;-51
2022/11/12 05:12:46;;;;;;;3.83;3.43;;;8.00;99.90;;;;;;5034745;28;20480;-49
2022/11/12 05:15:16;;;;;;;3.73;3.07;;;7.90;99.90;;;;;;5019662;28;20774;-57
2022/11/12 05:17:43;;;;;;;3.63;2.50;;;7.90;99.90;;;;;;5034954;28;20429;-56
2022/11/12 05:20:11;;;;;;;4.87;2.87;;;7.90;99.90;;;;;;5035074;28;20445;-54
2022/11/12 05:22:39;;;;;;;2.30;2.10;;;7.80;99.90;;;;;;5034706;28;20515;-53
2022/11/12 05:25:11;;;;;;;4.10;2.37;;;7.80;99.90;;;;;;5034216;28;20499;-53
2022/11/12 05:27:38;;;;;;;5.23;3.87;;;7.80;99.90;;;;;;5034088;28;20492;-54
2022/11/12 05:30:06;;;;;;;8.17;2.60;;;7.80;99.90;;;;;;5034100;28;20479;-54
2022/11/12 05:32:36;;;;;;;5.63;2.87;;;7.80;99.90;;;;;;5034686;28;20441;-53
2022/11/12 05:35:03;;;;;;;4.47;2.37;;;7.80;99.90;;;;;;5034930;28;20460;-53
2022/11/12 05:37:32;;;;;;;3.60;3.10;;;7.80;99.90;;;;;;5033939;28;20461;-52
2022/11/12 05:39:59;;;;;;;3.77;2.97;;;7.80;99.90;;;;;;5033875;28;20445;-54
2022/11/12 05:42:30;;;;;;;4.63;3.33;;;7.80;99.90;;;;;;5034164;28;20448;-56
2022/11/12 05:44:57;;;;;;;4.73;2.43;;;7.80;99.90;;;;;;5033848;28;20445;-54
2022/11/12 05:47:24;;;;;;;7.13;2.67;;;7.80;99.90;;;;;;5033781;28;20472;-52
2022/11/12 05:49:51;;;;;;;4.43;3.17;;;7.80;99.90;;;;;;5033529;28;20456;-51
2022/11/12 05:52:18;;;;;;;3.00;2.60;;;7.80;99.90;;;;;;5037114;28;20445;-50
2022/11/12 05:54:45;;;;;;;3.43;2.47;;;7.80;99.90;;;;;;5038692;28;20456;-54
2022/11/12 05:57:12;;;;;;;3.57;2.43;;;7.80;99.90;;;;;;5038767;28;20436;-56
2022/11/12 05:59:43;;;;;;;5.57;2.97;;;7.80;99.90;;;;;;5039052;28;20452;-55
2022/11/12 06:02:11;;;;;;;2.83;2.53;;;7.80;99.90;;;;;;5038531;28;20465;-51
2022/11/12 06:04:38;;;;;;;3.00;2.70;;;7.70;99.90;;;;;;5037781;28;20441;-56
2022/11/12 06:07:08;;;;;;;4.30;3.20;;;7.70;99.90;;;;;;5037707;28;20448;-53
2022/11/12 06:09:36;;;;;;;5.30;3.17;;;7.70;99.90;;;;;;5037328;28;20456;-50
2022/11/12 06:12:05;;;;;;;4.67;2.47;;;7.70;99.90;;;;;;5037241;28;20499;-55
2022/11/12 06:14:32;;;;;;;3.57;2.30;;;7.70;99.90;;;;;;5028152;28;20464;-53
2022/11/12 06:17:00;;;;;;;4.73;3.00;;;7.60;99.90;;;;;;5035597;28;20428;-52
2022/11/12 06:19:27;;;;;;;4.60;3.20;;;7.60;99.90;;;;;;5030058;28;20456;-53
2022/11/12 06:21:54;;;;;;;3.20;2.67;;;7.60;99.90;;;;;;5036823;28;20449;-54
2022/11/12 06:24:23;;;;;;;5.93;2.73;;;7.60;99.90;;;;;;5037443;28;20434;-51
2022/11/12 06:26:49;;;;;;;6.63;3.47;;;7.60;99.90;;;;;;5037035;28;20456;-51
2022/11/12 06:29:16;;;;;;;3.27;2.20;;;7.60;99.90;;;;;;5036136;28;20496;-55
2022/11/12 06:31:43;;;;;;;5.03;2.90;;;7.60;99.90;;;;;;5035815;28;20445;-52
2022/11/12 06:34:13;;;;;;;3.97;2.90;;;7.60;99.90;;;;;;5036530;28;20433;-51
2022/11/12 06:36:39;;;;;;;4.53;2.50;;;7.60;99.90;;;;;;5036642;28;20449;-54
2022/11/12 06:39:06;;;;;;;7.03;3.40;;;7.60;99.90;;;;;;5036113;28;20453;-55
2022/11/12 06:41:33;;;;;;;4.47;3.00;;;7.60;99.90;;;;;;5036101;28;20449;-51
2022/11/12 06:44:00;;;;;;;9.03;3.13;;;7.60;99.90;;;;;;5036537;28;20460;-51
2022/11/12 06:46:27;;;;;;;3.93;3.10;;;7.60;99.90;;;;;;5024982;28;20444;-51
2022/11/12 06:48:54;;;;;;;8.10;2.80;;;7.50;99.90;;;;;;5032212;28;20481;-54
2022/11/12 06:51:22;;;;;;;3.33;2.50;;;7.50;99.90;;;;;;5028988;28;20545;-54
2022/11/12 06:53:50;;;;;;;6.40;2.97;;;7.50;99.90;;;;;;5024271;28;20445;-55
2022/11/12 06:56:17;;;;;;;4.70;2.77;;;7.60;99.90;;;;;;5036789;28;20445;-52
2022/11/12 06:58:44;;;;;;;3.70;2.57;;;7.60;99.90;;;;;;5028983;28;20448;-58
2022/11/12 07:01:14;;;;;;;4.43;3.10;;;7.60;99.90;;;;;;5032017;28;20452;-53
2022/11/12 07:03:41;;;;;;;4.40;3.30;;;7.60;99.90;;;;;;5035527;28;20465;-54
2022/11/12 07:06:11;;;;;;;3.47;3.10;;;7.60;99.90;;;;;;5031523;28;20457;-53
2022/11/12 07:08:40;;;;;;;6.20;3.40;;;7.60;99.90;;;;;;5028623;28;20512;-53
2022/11/12 07:11:07;;;;;;;4.10;2.83;;;7.60;99.90;;;;;;5023841;28;20566;-54
2022/11/12 07:13:35;;;;;;;9.53;3.40;;;7.60;99.90;;;;;;5037536;28;20441;-65
2022/11/12 07:16:03;;;;;;;3.63;2.50;;;7.60;99.90;;;;;;5036946;28;20476;-55
2022/11/12 07:18:31;;;;;;;7.53;2.83;;;7.60;99.90;;;;;;5027899;28;20449;-52
2022/11/12 07:20:59;;;;;;;5.10;2.60;;;7.60;99.90;;;;;;5036478;28;20492;-53
2022/11/12 07:23:27;;;;;;;4.20;3.03;;;7.60;99.90;;;;;;5036490;28;20430;-55
2022/11/12 07:26:00;;;;;;;5.93;2.97;;;7.60;99.90;;;;;;5036648;28;20460;-51
2022/11/12 07:28:28;;;;;;;11.13;2.77;;;7.70;99.90;;;;;;5036466;28;20512;-52
2022/11/12 07:30:56;;;;;;;4.63;3.60;;;7.80;99.90;;;;;;5036467;28;20472;-54
2022/11/12 07:33:24;;;;;;;4.23;3.27;;;7.80;99.90;;;;;;5036910;28;20528;-50
2022/11/12 07:35:57;;;;;;;3.70;3.30;;;7.80;99.90;;;;;;5036726;28;20441;-53
2022/11/12 07:38:24;;;;;;;3.33;2.80;;;7.90;99.90;;;;;;5036718;28;20512;-53
2022/11/12 07:40:58;;;;;;;4.13;2.80;;;8.00;99.90;;;;;;5036533;28;20465;-54
2022/11/12 07:43:26;;;;;;;2.73;2.40;;;8.00;99.90;;;;;;5036765;28;20413;-54
2022/11/12 07:45:53;;;;;;;5.63;3.63;;;8.00;99.90;;;;;;5036226;28;20457;-52
2022/11/12 07:48:20;;;;;;;3.30;3.00;;;8.00;99.90;;;;;;5030407;28;20857;-54
2022/11/12 07:50:47;;;;;;;4.40;3.03;;;8.00;99.90;;;;;;5030483;28;20441;-53
2022/11/12 07:53:14;;;;;;;6.80;2.77;;;8.10;99.90;;;;;;5022969;28;20513;-53
2022/11/12 07:55:40;;;;;;;3.63;3.30;;;8.20;99.90;;;;;;5035648;28;20458;-46
2022/11/12 07:58:07;;;;;;;3.77;3.10;;;8.20;99.90;;;;;;5035790;28;20465;-52
2022/11/12 08:00:36;;;;;;;3.60;2.80;;;8.20;99.90;;;;;;5036131;28;20456;-54
2022/11/12 08:03:03;;;;;;;6.03;2.83;;;8.30;99.90;;;;;;5035829;28;20441;-52
2022/11/12 08:05:29;;;;;;;2.93;2.63;;;8.40;99.90;;;;;;5035801;28;20453;-55
2022/11/12 08:07:59;;;;;;;4.30;3.27;;;8.40;99.90;;;;;;5035878;28;20465;-56
2022/11/12 08:10:26;;;;;;;6.93;3.93;;;8.50;99.90;;;;;;5035437;28;20457;-54
2022/11/12 08:12:56;;;;;;;5.07;2.90;;;8.50;99.90;;;;;;5026457;28;20445;-52
2022/11/12 08:15:23;;;;;;;7.53;3.47;;;8.60;99.90;;;;;;5031600;28;20445;-55
2022/11/12 08:17:52;;;;;;;6.60;3.50;;;8.70;99.90;;;;;;5033985;28;20479;-53
2022/11/12 08:20:19;;;;;;;4.40;3.47;;;8.80;99.90;;;;;;5022352;28;20476;-52
2022/11/12 08:22:46;;;;;;;5.63;3.57;;;8.80;99.90;;;;;;5035155;28;20465;-54
2022/11/12 08:25:13;;;;;;;4.60;2.90;;;8.90;99.90;;;;;;5034139;28;20445;-52
2022/11/12 08:27:40;;;;;;;3.97;2.80;;;8.90;99.90;;;;;;5035301;28;20476;-53
2022/11/12 08:30:09;;;;;;;7.23;3.50;;;8.90;99.90;;;;;;5027140;28;20875;-53
2022/11/12 08:32:36;;;;;;;6.67;3.97;;;9.00;99.90;;;;;;5030753;28;20497;-56
2022/11/12 08:35:04;;;;;;;4.33;3.70;;;9.10;99.90;;;;;;5034913;28;20480;-56
2022/11/12 08:37:31;;;;;;;5.30;4.20;;;9.10;99.90;;;;;;5022370;28;20449;-55
2022/11/12 08:39:58;;;;;;;7.23;4.90;;;9.20;99.90;;;;;;5035026;28;20452;-52
2022/11/12 08:42:25;;;;;;;4.17;3.80;;;9.30;99.90;;;;;;5034426;28;20460;-57
2022/11/12 08:44:52;;;;;;;5.30;4.33;;;9.40;99.90;;;;;;5034641;28;20441;-52
2022/11/12 08:47:19;;;;;;;5.40;3.87;;;9.50;99.90;;;;;;5034519;28;20456;-54
2022/11/12 08:49:45;;;;;;;5.00;3.63;;;9.60;99.90;;;;;;5034430;28;20548;-55
2022/11/12 08:52:14;;;;;;;5.90;4.07;;;9.70;99.90;;;;;;5034292;28;20468;-57
2022/11/12 08:54:40;;;;;;;5.40;3.57;;;9.80;99.90;;;;;;5034429;28;20444;-48
2022/11/12 08:57:07;;;;;;;6.00;3.80;;;9.80;99.90;;;;;;5034657;28;20453;-49
2022/11/12 08:59:37;;;;;;;5.00;3.60;;;10.00;99.90;;;;;;5034151;28;20480;-56
2022/11/12 09:02:05;;;;;;;8.07;4.10;;;10.10;99.90;;;;;;5034469;28;20468;-50
2022/11/12 09:04:32;;;;;;;4.50;3.73;;;10.20;99.90;;;;;;5034914;28;20454;-53
2022/11/12 09:06:59;;;;;;;5.33;3.30;;;10.30;99.90;;;;;;5034171;28;20467;-53
2022/11/12 09:09:27;;;;;;;12.27;4.10;;;10.50;99.90;;;;;;5034828;28;20480;-55
2022/11/12 09:11:54;;;;;;;8.40;4.33;;;10.60;99.90;;;;;;5035028;28;20465;-53
2022/11/12 09:14:21;;;;;;;8.83;4.53;;;10.80;99.90;;;;;;5034577;28;20445;-55
2022/11/12 09:16:48;;;;;;;6.23;5.20;;;11.00;99.90;;;;;;5021344;28;20484;-52
2022/11/12 09:19:15;;;;;;;8.93;5.03;;;11.20;99.90;;;;;;5024528;28;20445;-52
2022/11/12 09:21:42;;;;;;;8.30;4.93;;;11.50;99.90;;;;;;5030009;28;20463;-54
2022/11/12 09:24:09;;;;;;;6.40;4.37;;;12.40;99.90;;;;;;5036028;28;20465;-56
2022/11/12 09:26:37;;;;;;;6.80;4.67;;;13.70;99.90;;;;;;5037579;28;20452;-50
2022/11/12 09:29:04;;;;;;;5.77;4.10;;;15.10;99.90;;;;;;5039594;28;20496;-53
2022/11/12 09:31:31;;;;;;;6.70;4.73;;;16.00;99.90;;;;;;5039654;28;20444;-53
2022/11/12 09:33:57;;;;;;;8.53;4.90;;;16.50;99.90;;;;;;5039440;28;20476;-52
2022/11/12 09:36:26;;;;;;;6.80;4.50;;;16.60;99.90;;;;;;5039306;28;20461;-52
2022/11/12 09:38:53;;;;;;;7.73;5.47;;;16.60;99.90;;;;;;5039342;28;20441;-53
2022/11/12 09:41:26;;;;;;;7.83;4.57;;;16.80;99.90;;;;;;5039249;28;20440;-52
2022/11/12 09:43:57;;;;;;;7.10;5.40;;;17.40;99.90;;;;;;5039385;28;20429;-50
2022/11/12 09:46:31;;;;;;;6.70;5.53;;;18.20;99.90;;;;;;5034139;28;20429;-55
2022/11/12 09:49:03;;;;;;;10.30;5.50;;;18.70;99.90;;;;;;5028233;28;20543;-54
2022/11/12 09:51:34;;;;;;;11.60;5.90;;;19.20;99.90;;;;;;5039236;28;20476;-54
2022/11/12 09:54:06;;;;;;;10.70;5.60;;;19.90;99.90;;;;;;5031301;28;20469;-56
2022/11/12 09:56:33;;;;;;;11.13;6.63;;;20.60;99.90;;;;;;5029607;28;20433;-50
2022/11/12 09:59:02;;;;;;;10.70;6.00;;;21.30;99.60;;;;;;5039030;28;20479;-50
2022/11/12 10:01:43;;;;;;;8.63;6.10;;;21.80;97.80;;;;;;5039357;28;20813;-52
2022/11/12 10:04:40;;;;;;;8.17;5.63;;;22.50;94.30;;;;;;5039180;28;20430;-49
2022/11/12 10:07:14;;;;;;;11.03;5.73;;;22.10;93.20;;;;;;5036635;28;20499;-53
2022/11/12 10:09:50;;;;;;;10.50;6.17;;;21.10;94.20;;;;;;5024350;28;20509;-49
2022/11/12 10:12:32;;;;;;;6.90;5.23;;;20.40;96.80;;;;;;5023819;28;20495;-52
2022/11/12 10:18:13;;;;;;;9.87;6.57;;;19.90;99.80;;;;;;5038591;28;20422;-60
2022/11/12 10:20:48;;;;;;;6.30;5.37;;;19.40;99.90;;;;;;5037975;28;20465;-51
2022/11/12 10:23:19;;;;;;;9.93;5.60;;;18.80;99.90;;;;;;5038610;28;20409;-51
2022/11/12 10:25:49;;;;;;;12.17;6.47;;;18.20;99.90;;;;;;5028646;28;20465;-54
2022/11/12 10:28:35;;;;;;;11.03;6.17;;;17.80;99.90;;;;;;5032052;28;20449;-51
2022/11/12 10:31:11;;;;;;;12.23;7.00;;;17.40;99.90;;;;;;5037561;28;20524;-49
2022/11/12 10:33:38;;;;;;;13.43;5.37;;;17.20;99.90;;;;;;5022056;28;20884;-55
2022/11/12 10:36:28;;;;;;;9.40;6.60;;;17.30;99.90;;;;;;5038193;28;20433;-53
2022/11/12 10:38:56;;;;;;;12.20;6.17;;;17.50;99.90;;;;;;5037221;28;20464;-54
2022/11/12 10:41:25;;;;;;;6.43;4.53;;;17.50;99.90;;;;;;5037979;28;20456;-56
2022/11/12 10:44:00;;;;;;;9.33;5.93;;;17.50;99.90;;;;;;5037874;28;20453;-54
2022/11/12 10:46:31;;;;;;;10.40;5.00;;;17.40;99.90;;;;;;5037627;28;20488;-55
2022/11/12 10:49:02;;;;;;;9.40;5.50;;;17.10;99.90;;;;;;5037871;28;20472;-55
2022/11/12 10:51:32;;;;;;;14.90;6.70;;;16.90;99.90;;;;;;5037714;28;20798;-50
2022/11/12 10:54:18;;;;;;;8.83;5.20;;;16.80;99.90;;;;;;5025733;28;20900;-56
2022/11/12 10:56:46;;;;;;;12.80;5.67;;;16.70;99.90;;;;;;5036174;28;20476;-51
2022/11/12 10:59:17;;;;;;;13.67;5.50;;;16.50;99.90;;;;;;5038219;28;20433;-50
2022/11/12 11:01:54;;;;;;;9.10;5.50;;;16.40;99.90;;;;;;5037563;28;20476;-54
2022/11/12 11:04:29;;;;;;;8.80;6.00;;;16.30;99.90;;;;;;5037678;28;20429;-51
2022/11/12 11:07:02;;;;;;;10.43;6.77;;;16.30;99.90;;;;;;5037489;28;20463;-54
2022/11/12 11:09:30;;;;;;;11.60;5.90;;;16.20;99.90;;;;;;5037493;28;20493;-56
2022/11/12 11:11:57;;;;;;;9.93;4.60;;;16.10;99.90;;;;;;5037305;28;20476;-56
2022/11/12 11:14:27;;;;;;;7.40;4.80;;;16.10;99.90;;;;;;5026852;28;20455;-53
2022/11/12 11:16:58;;;;;;;7.70;5.70;;;16.10;99.90;;;;;;5038680;28;20456;-53
2022/11/12 11:19:34;;;;;;;8.93;5.23;;;16.00;99.90;;;;;;5038245;28;20417;-55
2022/11/12 11:22:28;;;;;;;9.10;6.10;;;16.00;99.90;;;;;;5037465;28;20464;-49
2022/11/12 11:25:18;;;;;;;11.53;4.70;;;15.90;99.90;;;;;;5029330;28;20430;-56
2022/11/12 11:28:01;;;;;;;7.87;5.03;;;15.80;99.90;;;;;;5032609;28;20465;-56
2022/11/12 11:30:28;;;;;;;9.33;5.70;;;15.70;99.90;;;;;;5036986;28;20461;-57
2022/11/12 11:33:23;;;;;;;13.33;5.90;;;15.60;99.90;;;;;;5036387;28;20436;-57
2022/11/12 11:35:59;;;;;;;8.70;5.00;;;15.60;99.90;;;;;;5025604;28;20453;-53
2022/11/12 11:38:33;;;;;;;13.10;4.93;;;15.50;99.90;;;;;;5034073;28;20425;-58
2022/11/12 11:41:17;;;;;;;7.47;4.80;;;15.30;99.90;;;;;;5036388;28;20491;-55
2022/11/12 11:43:56;;;;;;;7.73;6.03;;;15.20;99.90;;;;;;5036797;28;20425;-62
2022/11/12 11:46:42;;;;;;;8.53;4.67;;;15.00;99.90;;;;;;5024256;28;20492;-53
2022/11/12 11:49:39;;;;;;;8.33;5.80;;;14.90;99.90;;;;;;5025982;28;20461;-56
2022/11/12 11:52:29;;;;;;;9.47;5.60;;;14.80;99.90;;;;;;5033897;28;20497;-53
2022/11/12 11:55:12;;;;;;;10.47;4.47;;;14.70;99.90;;;;;;5036366;28;20406;-56
2022/11/12 11:57:47;;;;;;;11.17;4.60;;;14.60;99.90;;;;;;5036868;28;20436;-55
2022/11/12 12:00:19;;;;;;;5.93;4.83;;;14.50;99.90;;;;;;5035902;28;20433;-51
2022/11/12 12:03:20;;;;;;;9.77;5.47;;;14.40;99.90;;;;;;5036657;28;20453;-55
2022/11/12 12:06:05;;;;;;;8.20;4.57;;;14.50;99.90;;;;;;5002130;28;20461;-56
2022/11/12 12:08:48;;;;;;;7.77;4.27;;;14.50;99.90;;;;;;5036545;28;20429;-54
2022/11/12 12:11:21;;;;;;;9.17;4.13;;;14.60;99.90;;;;;;5037717;28;20452;-59
2022/11/12 12:14:06;;;;;;;11.50;6.33;;;14.70;99.90;;;;;;5029100;28;20508;-56
2022/11/12 12:17:06;;;;;;;11.07;5.23;;;14.70;99.90;;;;;;5036685;28;20472;-56
2022/11/12 12:19:43;;;;;;;7.50;4.80;;;14.70;99.90;;;;;;5036587;28;20435;-58
2022/11/12 12:22:15;;;;;;;6.30;4.20;;;14.70;99.90;;;;;;5035976;28;20426;-57
2022/11/12 12:24:48;;;;;;;8.20;5.77;;;14.70;99.90;;;;;;5024659;28;20441;-53
2022/11/12 12:27:20;;;;;;;6.70;4.67;;;14.70;99.90;;;;;;5030665;28;20428;-54
2022/11/12 12:29:54;;;;;;;7.00;4.67;;;14.70;99.90;;;;;;5023929;28;20484;-57
2022/11/12 12:32:26;;;;;;;7.63;4.70;;;14.70;99.90;;;;;;5036342;28;20463;-56
2022/11/12 12:34:58;;;;;;;6.87;4.47;;;14.80;99.90;;;;;;5026809;28;20472;-53
2022/11/12 12:37:35;;;;;;;9.93;5.17;;;14.80;99.90;;;;;;5034018;28;20433;-52
2022/11/12 12:40:09;;;;;;;9.50;5.50;;;14.90;99.90;;;;;;5023872;28;20429;-55
2022/11/12 12:42:42;;;;;;;6.03;4.30;;;14.90;99.90;;;;;;5035888;28;20433;-50
2022/11/12 12:45:26;;;;;;;14.87;5.20;;;14.90;99.90;;;;;;5035812;28;20436;-53
2022/11/12 12:47:55;;;;;;;6.93;4.00;;;14.90;99.90;;;;;;5035821;28;20465;-52
2022/11/12 12:50:23;;;;;;;10.67;4.30;;;14.90;99.90;;;;;;5036380;28;20461;-53
2022/11/12 12:53:04;;;;;;;6.00;4.07;;;14.90;99.90;;;;;;5035408;28;20449;-51
2022/11/12 12:55:38;;;;;;;8.10;4.70;;;15.00;99.90;;;;;;5035444;28;20445;-55
2022/11/12 12:58:16;;;;;;;11.10;4.60;;;15.00;99.90;;;;;;5035841;28;20449;-55
2022/11/12 13:00:48;;;;;;;9.03;5.37;;;15.00;99.90;;;;;;5035887;28;20473;-52
2022/11/12 13:03:48;;;;;;;9.20;5.17;;;15.00;99.90;;;;;;5038498;28;20437;-52
2022/11/12 13:06:21;;;;;;;18.53;5.20;;;15.10;99.90;;;;;;5038520;28;20500;-53
2022/11/12 13:08:52;;;;;;;10.80;7.13;;;15.10;99.90;;;;;;5039893;28;20449;-54
2022/11/12 13:15:07;;;;;;;11.17;5.17;;;15.10;99.90;;;;;;5034189;28;20452;-49
2022/11/12 13:17:49;;;;;;;7.87;5.07;;;15.10;99.90;;;;;;5039664;28;20427;-53
2022/11/12 13:20:35;;;;;;;9.27;5.60;;;15.10;99.90;;;;;;5039408;28;20441;-50
2022/11/12 13:23:02;;;;;;;10.60;4.60;;;15.20;99.90;;;;;;5039408;28;20457;-49
2022/11/12 13:25:32;;;;;;;8.60;5.07;;;15.20;99.90;;;;;;5038698;28;20539;-49
2022/11/12 13:28:13;;;;;;;12.43;5.47;;;15.20;99.90;;;;;;5038958;28;20460;-52
2022/11/12 13:31:02;;;;;;;13.83;5.80;;;15.20;99.90;;;;;;5039078;28;20511;-57
2022/11/12 13:33:37;;;;;;;9.20;5.30;;;15.10;99.90;;;;;;5038294;28;20437;-55
2022/11/12 13:36:25;;;;;;;9.90;6.13;;;15.10;99.90;;;;;;5038559;28;20475;-56